Time;durP1;ratioP1;P1;durP2;ratioP2;P2;SDS_P1;SDS_P2;PMS_P1;PMS_P2;Temp;Humidity;BMP_temperature;BMP_pressure;BME280_temperature;BME280_humidity;BME280_pressure;Samples;Min_cycle;Max_cycle;Signal;HPM_P1;HPM_P2
2020/12/14 00:02:19;;;;;;;22.40;10.73;;;1.10;99.90;;;;;;5038415;28;20174;-61
2020/12/14 00:04:45;;;;;;;25.80;12.77;;;1.10;99.90;;;;;;5036987;28;20186;-60
2020/12/14 00:07:11;;;;;;;20.00;11.10;;;1.10;99.90;;;;;;5038162;28;20594;-63
2020/12/14 00:09:36;;;;;;;30.33;15.13;;;1.10;99.90;;;;;;5038133;28;20235;-61
2020/12/14 00:12:03;;;;;;;23.97;12.30;;;1.10;99.90;;;;;;5037348;28;20189;-62
2020/12/14 00:14:28;;;;;;;22.90;11.53;;;1.20;99.90;;;;;;5037411;28;20210;-62
2020/12/14 00:16:54;;;;;;;22.83;11.33;;;1.10;99.90;;;;;;5038316;28;20248;-63
2020/12/14 00:19:21;;;;;;;23.27;12.67;;;1.10;99.90;;;;;;5038433;28;20256;-62
2020/12/14 00:21:46;;;;;;;24.80;12.53;;;1.20;99.90;;;;;;5037314;28;20178;-61
2020/12/14 00:24:12;;;;;;;23.60;11.97;;;1.10;99.90;;;;;;5038447;28;20198;-60
2020/12/14 00:26:37;;;;;;;23.97;12.60;;;1.20;99.90;;;;;;5037075;28;20210;-61
2020/12/14 00:29:03;;;;;;;24.37;10.80;;;1.20;99.90;;;;;;5038033;28;20190;-62
2020/12/14 00:31:29;;;;;;;21.57;10.57;;;1.30;99.90;;;;;;5037411;28;20238;-62
2020/12/14 00:33:54;;;;;;;22.97;12.03;;;1.30;99.90;;;;;;5041179;28;20679;-62
2020/12/14 00:36:20;;;;;;;25.53;14.43;;;1.30;99.90;;;;;;5040478;28;20196;-60
2020/12/14 00:38:45;;;;;;;24.83;12.63;;;1.40;99.90;;;;;;5038824;28;20181;-60
2020/12/14 00:41:17;;;;;;;22.33;11.20;;;1.40;99.90;;;;;;5041213;28;20536;-60
2020/12/14 00:43:42;;;;;;;27.27;12.40;;;1.40;99.90;;;;;;5040796;28;20288;-59
2020/12/14 00:46:16;;;;;;;23.57;11.53;;;1.40;99.90;;;;;;5040417;28;20685;-61
2020/12/14 00:48:42;;;;;;;19.23;9.83;;;1.40;99.90;;;;;;5036810;28;20194;-61
2020/12/14 00:51:08;;;;;;;19.77;10.33;;;1.40;99.90;;;;;;5037949;28;20167;-60
2020/12/14 00:53:34;;;;;;;24.23;12.43;;;1.40;99.90;;;;;;5038546;28;20178;-61
2020/12/14 00:56:06;;;;;;;23.27;12.70;;;1.40;99.90;;;;;;5038348;28;20199;-61
2020/12/14 00:58:33;;;;;;;25.33;13.77;;;1.50;99.90;;;;;;5037668;28;20277;-61
2020/12/14 01:00:59;;;;;;;28.43;14.80;;;1.50;99.90;;;;;;5035839;28;20827;-61
2020/12/14 01:03:25;;;;;;;20.87;11.13;;;1.50;99.90;;;;;;5038006;28;20594;-61
2020/12/14 01:05:54;;;;;;;26.53;14.53;;;1.50;99.90;;;;;;5037693;28;20204;-60
2020/12/14 01:08:21;;;;;;;28.77;14.50;;;1.50;99.90;;;;;;5037261;28;20752;-61
2020/12/14 01:10:48;;;;;;;22.10;11.80;;;1.60;99.90;;;;;;5037774;28;20190;-60
2020/12/14 01:13:14;;;;;;;25.50;13.13;;;1.60;99.90;;;;;;5036723;28;20205;-60
2020/12/14 01:15:39;;;;;;;30.80;16.07;;;1.60;99.90;;;;;;5037848;28;20685;-60
2020/12/14 01:18:05;;;;;;;25.10;12.23;;;1.60;99.90;;;;;;5036613;28;20187;-61
2020/12/14 01:20:30;;;;;;;25.23;12.97;;;1.60;99.90;;;;;;5039491;28;20567;-59
2020/12/14 01:22:56;;;;;;;27.33;13.23;;;1.70;99.90;;;;;;5037506;28;20169;-59
2020/12/14 01:25:21;;;;;;;27.23;14.27;;;1.60;99.90;;;;;;5038217;28;20206;-59
2020/12/14 01:27:46;;;;;;;23.97;11.23;;;1.60;99.90;;;;;;5034398;28;20274;-74
2020/12/14 01:30:12;;;;;;;28.47;15.10;;;1.60;99.90;;;;;;5049885;28;20224;-70
2020/12/14 01:32:37;;;;;;;31.17;15.03;;;1.70;99.90;;;;;;5034797;28;20189;-65
2020/12/14 01:35:04;;;;;;;31.23;15.40;;;1.70;99.90;;;;;;5036798;28;20201;-67
2020/12/14 01:37:29;;;;;;;26.03;12.43;;;1.70;99.90;;;;;;5036898;28;20209;-67
2020/12/14 01:39:55;;;;;;;28.23;13.57;;;1.70;99.90;;;;;;5043591;28;20191;-62
2020/12/14 01:42:22;;;;;;;24.13;12.73;;;1.70;99.90;;;;;;5035774;28;20174;-62
2020/12/14 01:44:49;;;;;;;20.07;10.33;;;1.70;99.90;;;;;;5037722;28;20676;-62
2020/12/14 09:58:19;;;;;;;58.80;23.60;;;4.10;99.90;;;;;;5093036;27;20899;-75
2020/12/14 10:00:44;;;;;;;36.90;16.57;;;4.10;99.90;;;;;;5096183;28;20207;-74
2020/12/14 10:03:09;;;;;;;54.93;22.67;;;4.10;99.90;;;;;;5096463;28;20245;-75
2020/12/14 10:05:35;;;;;;;64.07;23.50;;;4.20;99.90;;;;;;5088895;28;20198;-73
2020/12/14 10:08:01;;;;;;;72.80;24.33;;;4.30;99.90;;;;;;5093867;28;21000;-73
2020/12/14 10:10:26;;;;;;;67.67;25.03;;;4.20;99.90;;;;;;5092392;22;20221;-67
2020/12/14 10:12:58;;;;;;;56.70;21.10;;;4.30;99.90;;;;;;5060694;28;20235;-66
2020/12/14 10:15:23;;;;;;;70.93;22.77;;;4.40;99.90;;;;;;5060214;28;20637;-67
2020/12/14 10:17:49;;;;;;;65.00;23.60;;;4.40;99.90;;;;;;5067398;28;20208;-66
2020/12/14 10:20:14;;;;;;;80.00;27.27;;;4.40;99.90;;;;;;5059651;28;20284;-66
2020/12/14 10:22:40;;;;;;;67.17;22.73;;;4.40;99.90;;;;;;5054687;28;20188;-66
2020/12/14 10:25:05;;;;;;;66.97;22.63;;;4.50;99.90;;;;;;5054012;28;20177;-67
2020/12/14 10:27:31;;;;;;;64.60;22.43;;;4.50;99.90;;;;;;5054779;28;20193;-66
2020/12/14 10:29:56;;;;;;;64.23;22.40;;;4.50;99.90;;;;;;5054668;28;20201;-67
2020/12/14 10:32:22;;;;;;;61.30;23.37;;;4.50;99.90;;;;;;5053166;28;20221;-67
2020/12/14 10:34:48;;;;;;;61.07;22.40;;;4.60;99.90;;;;;;5054028;28;20184;-67
2020/12/14 10:37:13;;;;;;;70.43;25.87;;;4.60;99.90;;;;;;5054723;28;20193;-68
2020/12/14 10:39:38;;;;;;;33.40;12.47;;;4.60;99.90;;;;;;5054610;28;20194;-68
2020/12/14 10:42:04;;;;;;;60.20;20.90;;;4.70;99.90;;;;;;5054256;28;20182;-69
2020/12/14 10:44:30;;;;;;;39.53;15.47;;;4.70;99.90;;;;;;5054524;28;20272;-67
2020/12/14 10:47:02;;;;;;;46.03;18.07;;;4.70;99.90;;;;;;5055086;28;20169;-67
2020/12/14 10:49:27;;;;;;;42.50;18.23;;;4.80;99.90;;;;;;5055473;28;20201;-67
2020/12/14 10:51:53;;;;;;;46.20;17.07;;;4.70;99.90;;;;;;5054662;28;20185;-67
2020/12/14 10:54:18;;;;;;;38.77;15.13;;;4.80;99.90;;;;;;5053828;28;20577;-67
2020/12/14 10:56:45;;;;;;;53.97;19.00;;;4.80;99.90;;;;;;5055074;28;20571;-70
2020/12/14 10:59:11;;;;;;;44.90;18.77;;;4.90;99.90;;;;;;5055914;28;20174;-72
2020/12/14 11:01:37;;;;;;;26.97;11.80;;;4.90;99.90;;;;;;5055081;28;20188;-68
2020/12/14 11:04:02;;;;;;;41.97;15.40;;;4.90;99.90;;;;;;5054492;28;20180;-69
2020/12/14 11:06:31;;;;;;;50.73;20.83;;;4.90;99.90;;;;;;5053225;28;20223;-69
2020/12/14 11:08:58;;;;;;;27.70;14.53;;;4.90;99.90;;;;;;5046036;28;20257;-69
2020/12/14 11:11:23;;;;;;;29.67;14.57;;;5.00;99.90;;;;;;5041791;28;20190;-68
2020/12/14 11:13:49;;;;;;;35.43;16.63;;;5.00;99.90;;;;;;5040776;28;20181;-67
2020/12/14 11:16:16;;;;;;;38.00;17.63;;;5.00;99.90;;;;;;5045010;28;20219;-68
2020/12/14 11:18:41;;;;;;;31.87;15.23;;;5.10;99.90;;;;;;5044243;28;20177;-68
2020/12/14 11:21:07;;;;;;;36.67;18.47;;;5.20;99.90;;;;;;5043643;28;20198;-69
2020/12/14 11:23:32;;;;;;;20.33;11.07;;;5.10;99.90;;;;;;5040598;28;20262;-67
2020/12/14 11:25:58;;;;;;;29.20;15.23;;;5.10;99.90;;;;;;5040217;28;20166;-67
2020/12/14 11:28:25;;;;;;;27.33;15.27;;;5.10;99.90;;;;;;5040226;28;20690;-67
2020/12/14 11:30:50;;;;;;;25.33;13.33;;;5.10;99.90;;;;;;5039660;28;20969;-67
2020/12/14 11:33:16;;;;;;;29.33;15.93;;;5.20;99.90;;;;;;5040568;28;20190;-67
2020/12/14 11:35:43;;;;;;;24.77;14.27;;;5.30;99.90;;;;;;5041297;28;20195;-66
2020/12/14 11:38:08;;;;;;;30.43;17.50;;;5.30;99.90;;;;;;5041562;28;21468;-66
2020/12/14 11:40:34;;;;;;;27.17;15.20;;;5.40;99.90;;;;;;5041201;28;20214;-67
2020/12/14 11:43:00;;;;;;;18.00;10.43;;;5.30;99.90;;;;;;5038980;28;20194;-66
2020/12/14 11:45:27;;;;;;;27.80;16.83;;;5.30;99.90;;;;;;5041057;28;20280;-67
2020/12/14 11:47:53;;;;;;;23.37;14.80;;;5.30;99.90;;;;;;5041574;28;20240;-67
2020/12/14 11:50:19;;;;;;;26.40;14.70;;;5.30;99.90;;;;;;5041254;28;20696;-66
2020/12/14 11:52:46;;;;;;;16.87;10.17;;;5.30;99.90;;;;;;5040403;28;20817;-67
2020/12/14 11:55:12;;;;;;;24.27;13.40;;;5.30;99.90;;;;;;5041868;28;20711;-67
2020/12/14 11:57:38;;;;;;;26.50;15.60;;;5.40;99.90;;;;;;5040132;28;20691;-66
2020/12/14 12:00:10;;;;;;;20.27;13.07;;;5.40;99.90;;;;;;5040321;28;20206;-67
2020/12/14 12:02:36;;;;;;;22.90;14.83;;;5.50;99.90;;;;;;5039994;28;20173;-66
2020/12/14 12:05:02;;;;;;;24.03;14.20;;;5.60;99.90;;;;;;5040987;28;20170;-67
2020/12/14 12:07:28;;;;;;;13.27;9.20;;;5.60;99.90;;;;;;5040607;28;20181;-67
2020/12/14 12:09:53;;;;;;;20.67;14.40;;;5.60;99.90;;;;;;5040014;28;20241;-65
2020/12/14 12:12:19;;;;;;;22.33;13.43;;;5.60;99.90;;;;;;5040459;28;20182;-66
2020/12/14 12:14:44;;;;;;;21.30;13.93;;;5.70;99.90;;;;;;5039969;28;20178;-66
2020/12/14 12:17:10;;;;;;;21.83;14.20;;;5.70;99.90;;;;;;5040187;28;20759;-67
2020/12/14 12:19:35;;;;;;;21.43;13.50;;;5.80;99.90;;;;;;5038927;28;20239;-66
2020/12/14 12:22:01;;;;;;;19.33;12.33;;;5.80;99.90;;;;;;5040209;28;20181;-66
2020/12/14 12:24:27;;;;;;;17.50;11.33;;;5.90;99.90;;;;;;5038966;28;20265;-66
2020/12/14 12:26:53;;;;;;;19.77;13.37;;;5.90;99.90;;;;;;5040309;28;20718;-65
2020/12/14 12:29:18;;;;;;;21.50;12.87;;;5.90;99.90;;;;;;5039294;28;20809;-64
2020/12/14 12:31:51;;;;;;;21.07;14.13;;;5.80;99.90;;;;;;5040278;28;20201;-65
2020/12/14 12:34:17;;;;;;;15.90;10.03;;;5.90;99.90;;;;;;5040781;28;20308;-65
2020/12/14 12:36:49;;;;;;;22.23;12.03;;;5.90;99.90;;;;;;5040211;28;20214;-64
2020/12/14 12:39:14;;;;;;;14.03;9.37;;;5.90;99.90;;;;;;5038911;28;20201;-65
2020/12/14 12:41:44;;;;;;;16.97;8.80;;;5.90;99.90;;;;;;5038899;28;20178;-65
2020/12/14 12:44:09;;;;;;;19.07;12.07;;;5.90;99.90;;;;;;5039226;28;20543;-66
2020/12/14 12:46:35;;;;;;;21.43;14.23;;;6.00;99.90;;;;;;5039629;28;20177;-66
2020/12/14 12:49:00;;;;;;;17.67;10.67;;;6.00;99.90;;;;;;5038251;28;20580;-62
2020/12/14 12:51:26;;;;;;;20.00;13.37;;;6.00;99.90;;;;;;5038588;28;20189;-62
2020/12/14 12:53:51;;;;;;;21.73;14.40;;;6.00;99.90;;;;;;5039061;28;20191;-62
2020/12/14 12:56:23;;;;;;;21.00;13.40;;;6.00;99.90;;;;;;5039375;28;20288;-62
2020/12/14 12:58:48;;;;;;;16.97;11.90;;;6.00;99.90;;;;;;5038421;28;20189;-63
2020/12/14 13:01:14;;;;;;;20.33;12.07;;;6.10;99.90;;;;;;5038417;28;20612;-62
2020/12/14 13:03:39;;;;;;;21.43;13.57;;;6.00;99.90;;;;;;5039241;28;20182;-63
2020/12/14 13:06:05;;;;;;;21.87;13.63;;;6.10;99.90;;;;;;5039497;28;20188;-62
2020/12/14 13:08:30;;;;;;;19.17;12.53;;;6.10;99.90;;;;;;5038702;28;20194;-62
2020/12/14 13:10:56;;;;;;;21.63;13.07;;;6.20;99.90;;;;;;5037135;28;20228;-63
2020/12/14 13:13:21;;;;;;;20.27;12.30;;;6.20;99.90;;;;;;5038763;28;20247;-61
2020/12/14 13:15:47;;;;;;;20.77;12.40;;;6.20;99.90;;;;;;5041475;28;20179;-63
2020/12/14 13:18:14;;;;;;;21.80;14.77;;;6.20;99.90;;;;;;5038695;28;20214;-63
2020/12/14 13:20:39;;;;;;;16.33;11.53;;;6.20;99.90;;;;;;5039564;28;20685;-64
2020/12/14 13:23:05;;;;;;;22.27;15.90;;;6.20;99.90;;;;;;5039242;28;20217;-63
2020/12/14 13:25:30;;;;;;;21.10;14.03;;;6.30;99.90;;;;;;5039023;28;20209;-63
2020/12/14 13:27:56;;;;;;;15.70;10.57;;;6.30;99.90;;;;;;5037788;28;20572;-63
2020/12/14 13:30:21;;;;;;;24.03;13.90;;;6.40;99.90;;;;;;5038006;28;20214;-62
2020/12/14 13:32:47;;;;;;;17.23;11.10;;;6.40;99.90;;;;;;5036312;28;20289;-62
2020/12/14 13:35:12;;;;;;;18.93;12.57;;;6.40;99.90;;;;;;5038873;28;20196;-63
2020/12/14 13:37:38;;;;;;;18.53;11.73;;;6.40;99.90;;;;;;5039766;28;20622;-62
2020/12/14 13:40:04;;;;;;;20.17;13.80;;;6.40;99.90;;;;;;5037203;28;20190;-69
2020/12/14 13:42:30;;;;;;;24.70;16.33;;;6.40;99.90;;;;;;5051372;28;20304;-70
2020/12/14 13:44:57;;;;;;;18.00;11.53;;;6.40;99.90;;;;;;5037257;28;20221;-69
2020/12/14 13:47:22;;;;;;;20.67;12.43;;;6.40;99.90;;;;;;5039224;28;20277;-67
2020/12/14 13:49:49;;;;;;;22.53;14.20;;;6.40;99.90;;;;;;5039357;28;20190;-67
2020/12/14 13:52:15;;;;;;;21.67;14.43;;;6.40;99.90;;;;;;5037472;28;20205;-68
2020/12/14 13:54:40;;;;;;;14.83;10.00;;;6.50;99.90;;;;;;5037229;28;20834;-69
2020/12/14 13:57:06;;;;;;;17.60;12.40;;;6.40;99.90;;;;;;5037093;28;20567;-67
2020/12/14 13:59:31;;;;;;;20.87;14.00;;;6.40;99.90;;;;;;5040178;28;20206;-68
2020/12/14 14:01:57;;;;;;;19.90;12.90;;;6.40;99.90;;;;;;5037970;28;20181;-67
2020/12/14 14:04:22;;;;;;;17.90;12.13;;;6.40;99.90;;;;;;5040144;28;20225;-68
2020/12/14 14:06:49;;;;;;;19.63;13.07;;;6.40;99.90;;;;;;5039764;28;20299;-67
2020/12/14 14:09:15;;;;;;;19.07;13.70;;;6.40;99.90;;;;;;5038908;28;20242;-68
2020/12/14 14:11:41;;;;;;;17.00;9.03;;;6.40;99.90;;;;;;5039667;28;20182;-70
2020/12/14 14:14:08;;;;;;;20.37;13.27;;;6.40;99.90;;;;;;5039303;28;20230;-66
2020/12/14 14:16:34;;;;;;;18.47;13.07;;;6.50;99.90;;;;;;5039964;28;20668;-68
2020/12/14 14:18:59;;;;;;;18.80;13.50;;;6.50;99.90;;;;;;5041439;28;20184;-71
2020/12/14 14:21:25;;;;;;;17.17;12.43;;;6.60;99.90;;;;;;5045298;28;20243;-68
2020/12/14 14:23:50;;;;;;;16.23;10.60;;;6.60;99.90;;;;;;5049269;28;20185;-69
2020/12/14 14:26:16;;;;;;;17.93;12.40;;;6.60;99.90;;;;;;5048579;28;20549;-67
2020/12/14 14:28:41;;;;;;;16.60;10.87;;;6.60;99.90;;;;;;5049968;28;20174;-67
2020/12/14 14:31:07;;;;;;;16.93;11.07;;;6.60;99.90;;;;;;5050369;28;20268;-67
2020/12/14 14:33:32;;;;;;;17.13;12.60;;;6.60;99.90;;;;;;5049441;28;20700;-67
2020/12/14 14:35:58;;;;;;;18.87;13.00;;;6.60;99.90;;;;;;5050267;28;20177;-68
2020/12/14 14:38:23;;;;;;;18.03;13.67;;;6.60;99.90;;;;;;5048643;28;20285;-68
2020/12/14 14:40:49;;;;;;;17.70;12.27;;;6.60;99.90;;;;;;5050157;28;20202;-67
2020/12/14 14:43:18;;;;;;;17.07;11.70;;;6.60;99.90;;;;;;5048844;28;20260;-69
2020/12/14 14:45:43;;;;;;;16.20;10.93;;;6.60;99.90;;;;;;5054858;28;20190;-68
2020/12/14 14:48:09;;;;;;;18.33;13.07;;;6.60;99.90;;;;;;5054458;28;20641;-67
2020/12/14 14:50:35;;;;;;;20.70;13.53;;;6.60;99.90;;;;;;5053356;28;20269;-68
2020/12/14 14:53:01;;;;;;;18.70;12.77;;;6.60;99.90;;;;;;5052649;28;20682;-69
2020/12/14 14:55:26;;;;;;;20.20;13.07;;;6.50;99.90;;;;;;5054779;28;20178;-69
2020/12/14 14:57:52;;;;;;;20.83;13.67;;;6.50;99.90;;;;;;5045822;28;20209;-69
2020/12/14 15:00:18;;;;;;;23.67;15.47;;;6.50;99.90;;;;;;5042004;28;20292;-69
2020/12/14 15:02:43;;;;;;;18.60;11.53;;;6.50;99.90;;;;;;5045730;28;20170;-68
2020/12/14 15:05:09;;;;;;;21.83;14.27;;;6.50;99.90;;;;;;5054294;28;20182;-68
2020/12/14 15:07:35;;;;;;;17.77;10.90;;;6.50;99.90;;;;;;5056082;28;20170;-69
2020/12/14 15:10:00;;;;;;;20.37;12.93;;;6.40;99.90;;;;;;5054762;28;20638;-68
2020/12/14 15:12:26;;;;;;;17.43;12.70;;;6.40;99.90;;;;;;5048549;28;20189;-67
2020/12/14 15:14:52;;;;;;;16.20;12.23;;;6.50;99.90;;;;;;5052041;28;20180;-61
2020/12/14 15:17:18;;;;;;;16.70;10.97;;;6.50;99.90;;;;;;5048760;28;20197;-63
2020/12/14 15:19:43;;;;;;;20.23;13.13;;;6.50;99.90;;;;;;5053959;28;20231;-60
2020/12/14 15:22:09;;;;;;;16.50;11.77;;;6.50;99.90;;;;;;5053437;28;20173;-61
2020/12/14 15:24:34;;;;;;;19.47;13.57;;;6.50;99.90;;;;;;5037431;28;20174;-61
2020/12/14 15:27:00;;;;;;;16.50;12.10;;;6.50;99.90;;;;;;5033876;28;20170;-62
2020/12/14 15:29:26;;;;;;;18.03;12.23;;;6.50;99.90;;;;;;5037793;28;20193;-62
2020/12/14 15:31:51;;;;;;;15.47;11.47;;;6.50;99.90;;;;;;5052690;28;20236;-60
2020/12/14 15:34:20;;;;;;;16.77;12.03;;;6.50;99.90;;;;;;5045625;28;20178;-72
2020/12/14 15:36:45;;;;;;;17.57;12.57;;;6.50;99.90;;;;;;5045615;28;20720;-64
2020/12/14 15:39:11;;;;;;;16.80;12.63;;;6.50;99.90;;;;;;5034508;28;20186;-66
2020/12/14 15:41:37;;;;;;;16.47;11.97;;;6.50;99.90;;;;;;5032559;28;20182;-66
2020/12/14 15:44:02;;;;;;;17.10;11.40;;;6.50;99.90;;;;;;5033342;28;20572;-65
2020/12/14 15:46:28;;;;;;;16.63;12.43;;;6.50;99.90;;;;;;5053265;28;20201;-64
2020/12/14 15:48:54;;;;;;;17.17;12.03;;;6.50;99.90;;;;;;5053846;28;20216;-66
2020/12/14 15:51:21;;;;;;;17.87;12.53;;;6.40;99.90;;;;;;5054398;28;20573;-65
2020/12/14 15:53:46;;;;;;;17.83;12.53;;;6.40;99.90;;;;;;5054142;28;20202;-65
2020/12/14 15:56:21;;;;;;;17.23;12.60;;;6.40;99.90;;;;;;5052553;28;20216;-65
2020/12/14 15:58:47;;;;;;;16.40;12.17;;;6.40;99.90;;;;;;5053858;28;20299;-65
2020/12/14 16:01:18;;;;;;;19.23;13.00;;;6.40;99.90;;;;;;5053424;28;20231;-65
2020/12/14 16:03:44;;;;;;;16.23;12.60;;;6.40;99.90;;;;;;5052220;28;20184;-63
2020/12/14 16:06:10;;;;;;;16.90;12.10;;;6.40;99.90;;;;;;5052017;28;20652;-64
2020/12/14 16:08:35;;;;;;;15.77;11.43;;;6.40;99.90;;;;;;5052631;28;20226;-65
2020/12/14 16:11:02;;;;;;;18.27;12.17;;;6.40;99.90;;;;;;5051522;22;20230;-63
2020/12/14 16:13:28;;;;;;;15.43;12.43;;;6.40;99.90;;;;;;5032132;28;20262;-63
2020/12/14 16:15:53;;;;;;;15.90;11.43;;;6.40;99.90;;;;;;5032136;28;20773;-63
2020/12/14 16:18:19;;;;;;;17.60;12.60;;;6.40;99.90;;;;;;5031980;28;20668;-63
2020/12/14 16:20:44;;;;;;;13.10;9.73;;;6.40;99.90;;;;;;5031446;28;20195;-62
2020/12/14 16:23:10;;;;;;;14.17;10.30;;;6.40;99.90;;;;;;5031783;28;20224;-63
2020/12/14 16:25:35;;;;;;;15.03;11.03;;;6.40;99.90;;;;;;5031577;28;20175;-62
2020/12/14 16:28:01;;;;;;;15.73;11.70;;;6.40;99.90;;;;;;5031960;28;20174;-62
2020/12/14 16:30:27;;;;;;;12.03;8.80;;;6.40;99.90;;;;;;5031455;28;20683;-64
2020/12/14 16:32:52;;;;;;;15.00;11.27;;;6.50;99.90;;;;;;5031985;28;20569;-61
2020/12/14 16:35:18;;;;;;;17.77;12.40;;;6.40;99.90;;;;;;5031633;28;20209;-61
2020/12/14 16:37:43;;;;;;;12.87;9.80;;;6.50;99.90;;;;;;5030247;28;20220;-61
2020/12/14 16:40:09;;;;;;;13.73;10.83;;;6.40;99.90;;;;;;5031424;28;20244;-61
2020/12/14 16:42:36;;;;;;;13.53;10.30;;;6.40;99.90;;;;;;5031179;28;20229;-61
2020/12/14 16:45:05;;;;;;;13.50;10.00;;;6.50;99.90;;;;;;5031373;28;20225;-61
2020/12/14 16:47:31;;;;;;;15.57;11.47;;;6.50;99.90;;;;;;5031563;28;20265;-62
2020/12/14 16:49:56;;;;;;;12.17;9.73;;;6.50;99.90;;;;;;5030158;28;20277;-61
2020/12/14 16:52:22;;;;;;;14.10;10.97;;;6.50;99.90;;;;;;5031663;28;20178;-63
2020/12/14 16:54:47;;;;;;;14.90;11.07;;;6.50;99.90;;;;;;5031749;28;20209;-61
2020/12/14 16:57:14;;;;;;;11.67;9.37;;;6.50;99.90;;;;;;5031702;28;20288;-62
2020/12/14 16:59:39;;;;;;;9.03;7.17;;;6.50;99.90;;;;;;5031349;28;20190;-62
2020/12/14 17:02:08;;;;;;;13.17;10.23;;;6.50;99.90;;;;;;5031213;28;20174;-62
2020/12/14 17:07:03;;;;;;;10.13;8.33;;;6.50;99.90;;;;;;5028471;28;20174;-73
2020/12/14 17:09:29;;;;;;;12.63;10.30;;;6.50;99.90;;;;;;5025901;28;20208;-73
2020/12/14 17:11:54;;;;;;;15.10;11.00;;;6.50;99.90;;;;;;5038375;28;20182;-73
2020/12/14 17:14:20;;;;;;;16.57;12.47;;;6.50;99.90;;;;;;5032340;28;20189;-73
2020/12/14 17:16:47;;;;;;;19.73;10.87;;;6.50;99.90;;;;;;5027023;28;20202;-76
2020/12/14 17:19:13;;;;;;;16.40;10.53;;;6.50;99.90;;;;;;5045732;28;20181;-75
2020/12/14 17:21:39;;;;;;;14.37;10.20;;;6.50;99.90;;;;;;5041303;28;20174;-75
2020/12/14 17:24:05;;;;;;;13.23;10.60;;;6.50;99.90;;;;;;5034265;28;20171;-76
2020/12/14 17:26:31;;;;;;;14.17;10.33;;;6.50;99.90;;;;;;5031963;28;20233;-75
2020/12/14 17:28:58;;;;;;;16.20;11.37;;;6.50;99.90;;;;;;5015393;28;20192;-76
2020/12/14 17:31:24;;;;;;;14.17;10.67;;;6.50;99.90;;;;;;5019904;28;20713;-76
2020/12/14 17:33:52;;;;;;;14.40;11.43;;;6.60;99.90;;;;;;5041766;28;20175;-75
2020/12/14 17:36:18;;;;;;;13.07;10.20;;;6.60;99.90;;;;;;5030536;28;20665;-64
2020/12/14 17:38:43;;;;;;;15.03;10.83;;;6.60;99.90;;;;;;5028982;28;20224;-58
2020/12/14 17:41:09;;;;;;;14.27;11.10;;;6.60;99.90;;;;;;5032536;28;20225;-69
2020/12/14 17:43:34;;;;;;;15.43;10.27;;;6.60;99.90;;;;;;5046862;28;20182;-60
2020/12/14 17:46:00;;;;;;;16.40;10.93;;;6.60;99.90;;;;;;5040069;28;20189;-60
2020/12/14 17:48:26;;;;;;;15.57;12.17;;;6.60;99.90;;;;;;5047966;28;20219;-60
2020/12/14 17:50:51;;;;;;;14.30;10.60;;;6.60;99.90;;;;;;5060300;28;20197;-60
2020/12/14 17:53:17;;;;;;;13.10;10.37;;;6.60;99.90;;;;;;5045615;28;20216;-60
2020/12/14 17:55:42;;;;;;;15.07;11.47;;;6.60;99.90;;;;;;5041067;28;20189;-59
2020/12/14 17:58:08;;;;;;;16.13;11.10;;;6.70;99.90;;;;;;5042176;28;20220;-60
2020/12/14 18:00:33;;;;;;;13.07;10.50;;;6.70;99.90;;;;;;5047588;28;20606;-59
2020/12/14 18:02:59;;;;;;;13.87;10.10;;;6.70;99.90;;;;;;5048128;28;20178;-59
2020/12/14 18:05:25;;;;;;;13.70;10.37;;;6.70;99.90;;;;;;5048963;28;20261;-60
2020/12/14 18:07:51;;;;;;;13.20;9.77;;;6.70;99.90;;;;;;5048406;28;20614;-59
2020/12/14 18:10:17;;;;;;;13.47;9.63;;;6.70;99.90;;;;;;5047968;28;20212;-59
2020/12/14 18:12:43;;;;;;;13.57;10.90;;;6.70;99.90;;;;;;5043830;28;20421;-59
2020/12/14 18:15:08;;;;;;;11.93;9.60;;;6.70;99.90;;;;;;5046142;28;20711;-63
2020/12/14 18:17:34;;;;;;;11.33;9.37;;;6.70;99.90;;;;;;5042322;28;20579;-62
2020/12/14 18:19:59;;;;;;;17.03;11.33;;;6.70;99.90;;;;;;5044181;28;20197;-61
2020/12/14 18:22:25;;;;;;;12.90;10.37;;;6.70;99.90;;;;;;5043681;28;20844;-60
2020/12/14 18:24:50;;;;;;;13.37;10.70;;;6.70;99.90;;;;;;5050568;28;20181;-60
2020/12/14 18:27:16;;;;;;;16.53;10.60;;;6.80;99.90;;;;;;5050868;28;20189;-60
2020/12/14 18:29:41;;;;;;;12.63;9.73;;;6.70;99.90;;;;;;5047902;28;20293;-60
2020/12/14 18:36:28;;;;;;;12.73;9.63;;;6.80;99.90;;;;;;5046351;28;20181;-61
2020/12/14 18:39:16;;;;;;;12.87;9.67;;;6.80;99.90;;;;;;5049683;28;20210;-61
2020/12/14 18:53:46;;;;;;;13.23;11.17;;;6.80;99.90;;;;;;5050263;28;20200;-60
2020/12/14 18:56:29;;;;;;;12.17;10.30;;;6.80;99.90;;;;;;5051830;28;20209;-60
2020/12/14 19:40:03;;;;;;;13.17;9.90;;;6.90;99.90;;;;;;5056961;28;20358;-73
2020/12/14 21:24:19;;;;;;;25.40;15.80;;;6.60;99.90;;;;;;5047623;28;20703;-61
2020/12/14 21:26:44;;;;;;;25.67;15.23;;;6.60;99.90;;;;;;5049626;28;20213;-60
2020/12/14 21:29:11;;;;;;;24.30;15.33;;;6.60;99.90;;;;;;5052669;28;20184;-62
2020/12/14 21:31:36;;;;;;;24.23;14.67;;;6.60;99.90;;;;;;5052597;28;20195;-63
2020/12/14 21:34:02;;;;;;;25.50;14.97;;;6.60;99.90;;;;;;5049672;28;20261;-61
2020/12/14 21:36:28;;;;;;;25.93;14.87;;;6.60;99.90;;;;;;5051332;28;20689;-61
2020/12/14 21:38:57;;;;;;;23.87;14.50;;;6.60;99.90;;;;;;5045351;28;20188;-65
2020/12/14 21:41:24;;;;;;;22.97;13.70;;;6.60;99.90;;;;;;5043702;28;20193;-61
2020/12/14 21:43:51;;;;;;;22.60;15.63;;;6.60;99.90;;;;;;5045370;28;20181;-62
2020/12/14 21:46:17;;;;;;;23.33;14.50;;;6.60;99.90;;;;;;5046165;28;20196;-60
2020/12/14 21:48:47;;;;;;;22.67;15.20;;;6.60;99.90;;;;;;5046189;28;20177;-62
2020/12/14 21:51:13;;;;;;;22.70;14.47;;;6.70;99.90;;;;;;5041993;28;20561;-61
2020/12/14 21:53:39;;;;;;;21.00;13.50;;;6.70;99.90;;;;;;5045886;28;20671;-62
2020/12/14 21:56:04;;;;;;;18.73;13.27;;;6.70;99.90;;;;;;5049266;28;20174;-62
2020/12/14 21:58:30;;;;;;;24.73;14.47;;;6.70;99.90;;;;;;5044991;28;20284;-62
2020/12/14 22:00:55;;;;;;;25.60;15.40;;;6.70;99.90;;;;;;5048295;28;20196;-62
2020/12/14 22:03:21;;;;;;;22.57;14.20;;;6.80;99.90;;;;;;5048665;28;20200;-61
2020/12/14 22:05:46;;;;;;;22.67;14.77;;;6.80;99.90;;;;;;5047615;28;20170;-61
2020/12/14 22:08:12;;;;;;;23.27;15.20;;;6.80;99.90;;;;;;5043163;28;20193;-61
2020/12/14 22:10:37;;;;;;;21.27;15.40;;;6.80;99.90;;;;;;5062170;22;20769;-64
2020/12/14 22:13:03;;;;;;;24.23;15.40;;;6.90;99.90;;;;;;5035629;28;20177;-63
2020/12/14 22:15:28;;;;;;;24.43;15.17;;;6.90;99.90;;;;;;5038912;28;20646;-62
2020/12/14 22:17:54;;;;;;;24.70;15.17;;;6.90;99.90;;;;;;5035318;28;20225;-62
2020/12/14 22:20:19;;;;;;;22.00;14.87;;;6.90;99.90;;;;;;5035136;28;20676;-64
2020/12/14 22:22:48;;;;;;;21.03;14.03;;;7.00;99.90;;;;;;5035260;28;20182;-64
2020/12/14 22:25:13;;;;;;;19.37;14.07;;;7.00;99.90;;;;;;5037410;28;20182;-66
2020/12/14 22:27:39;;;;;;;22.23;12.83;;;7.00;99.90;;;;;;5037689;28;20220;-62
2020/12/14 22:30:05;;;;;;;19.23;12.93;;;6.90;99.90;;;;;;5038766;28;20745;-61
2020/12/14 22:32:30;;;;;;;19.63;13.23;;;6.90;99.90;;;;;;5038104;28;20272;-64
2020/12/14 22:34:56;;;;;;;22.60;14.30;;;7.00;99.90;;;;;;5038014;28;20175;-65
2020/12/14 22:37:22;;;;;;;20.20;13.63;;;7.00;99.90;;;;;;5037015;28;20547;-63
2020/12/14 22:39:47;;;;;;;18.73;13.07;;;7.00;99.90;;;;;;5037185;28;20197;-63
2020/12/14 22:42:13;;;;;;;21.47;14.20;;;7.00;99.90;;;;;;5036480;28;20170;-64
2020/12/14 22:44:38;;;;;;;20.33;13.63;;;7.10;99.90;;;;;;5033136;28;20257;-63
2020/12/14 22:47:04;;;;;;;24.03;14.97;;;7.00;99.90;;;;;;5036113;28;20245;-62
2020/12/14 22:49:29;;;;;;;19.63;12.70;;;7.10;99.90;;;;;;5035265;28;20194;-62
2020/12/14 22:51:54;;;;;;;18.93;13.30;;;7.10;99.90;;;;;;5037208;28;20162;-63
2020/12/14 22:54:20;;;;;;;21.33;14.30;;;7.10;99.90;;;;;;5036865;28;20658;-63
2020/12/14 22:56:52;;;;;;;19.27;13.97;;;7.10;99.90;;;;;;5035242;28;20209;-61
2020/12/14 22:59:18;;;;;;;20.20;13.30;;;7.10;99.90;;;;;;5038480;28;20178;-63
2020/12/14 23:01:44;;;;;;;18.33;12.20;;;7.10;99.90;;;;;;5036723;28;20209;-62
2020/12/14 23:04:10;;;;;;;19.77;13.43;;;7.10;99.90;;;;;;5034615;28;20717;-61
2020/12/14 23:06:35;;;;;;;17.47;13.10;;;7.10;99.90;;;;;;5041199;28;20182;-64
2020/12/14 23:09:03;;;;;;;17.83;13.67;;;7.10;99.90;;;;;;5033074;28;20225;-63
2020/12/14 23:11:29;;;;;;;19.10;13.07;;;7.10;99.90;;;;;;5041015;28;20294;-63
2020/12/14 23:13:54;;;;;;;21.50;12.73;;;7.10;99.90;;;;;;5038754;28;20257;-63
2020/12/14 23:16:20;;;;;;;18.77;13.57;;;7.20;99.90;;;;;;5040242;28;20236;-63
2020/12/14 23:18:45;;;;;;;18.40;13.33;;;7.10;99.90;;;;;;5039863;28;20644;-63
2020/12/14 23:21:11;;;;;;;18.90;13.03;;;7.10;99.90;;;;;;5037866;28;20212;-64
2020/12/14 23:23:36;;;;;;;17.30;13.17;;;7.10;99.90;;;;;;5038448;28;20235;-64
2020/12/14 23:26:02;;;;;;;16.17;12.30;;;7.20;99.90;;;;;;5038079;28;20189;-65